createdAt,value
2022-10-17T00:04:18.055Z,100666.16
2022-10-17T00:10:08.146Z,100684.91
2022-10-17T00:15:54.813Z,100680.16
2022-10-17T00:21:41.524Z,100672.59
2022-10-17T00:27:28.982Z,100687.47
2022-10-17T00:33:17.963Z,100696.19
2022-10-17T00:39:05.310Z,100700.16
2022-10-17T00:45:12.785Z,100714.03
2022-10-17T00:51:02.760Z,100720.50
2022-10-17T00:56:50.495Z,100722.53
2022-10-17T01:02:39.827Z,100719.97
2022-10-17T01:08:28.651Z,100735.47
2022-10-17T01:14:19.912Z,100739.78
2022-10-17T01:20:34.695Z,100727.63
2022-10-17T01:26:55.480Z,100721.81
2022-10-17T01:33:06.543Z,100739.81
2022-10-17T01:39:19.360Z,100748.69
2022-10-17T01:45:20.260Z,100754.94
2022-10-17T01:51:21.534Z,100775.25
2022-10-17T01:57:18.560Z,100770.53
2022-10-17T02:03:09.588Z,100782.19
2022-10-17T02:08:58.991Z,100787.69
2022-10-17T02:15:05.556Z,100798.06
2022-10-17T02:21:11.511Z,100798.22
2022-10-17T02:27:13.543Z,100815.25
2022-10-17T02:33:06.965Z,100821.50
2022-10-17T02:38:57.118Z,100827.00
2022-10-17T02:44:46.002Z,100818.41
2022-10-17T02:50:47.160Z,100768.97
2022-10-17T02:56:39.755Z,100772.13
2022-10-17T03:02:27.199Z,100779.97
2022-10-17T03:08:14.242Z,100783.59
2022-10-17T03:14:01.079Z,100794.16
2022-10-17T03:19:48.595Z,100802.94
2022-10-17T03:25:37.486Z,100777.63
2022-10-17T03:31:25.202Z,100767.25
2022-10-17T03:37:13.274Z,100788.94
2022-10-17T03:43:01.551Z,100813.63
2022-10-17T03:48:49.689Z,100816.31
2022-10-17T03:54:36.953Z,100813.34
2022-10-17T04:00:23.929Z,100817.09
2022-10-17T04:06:16.076Z,100824.69
2022-10-17T04:12:04.543Z,100808.31
2022-10-17T04:17:52.608Z,100840.09
2022-10-17T04:23:41.965Z,100835.38
2022-10-17T04:29:41.281Z,100829.56
2022-10-17T04:35:36.130Z,100814.56
2022-10-17T04:41:25.995Z,100840.25
2022-10-17T04:47:12.767Z,100850.47
2022-10-17T04:52:59.839Z,100863.72
2022-10-17T04:58:48.135Z,100865.13
2022-10-17T05:04:35.328Z,100864.00
2022-10-17T05:10:22.552Z,100878.50
2022-10-17T05:16:11.541Z,100883.50
2022-10-17T05:21:58.413Z,100921.47
2022-10-17T05:27:45.220Z,100947.59
2022-10-17T05:33:32.156Z,100947.09
2022-10-17T05:39:19.712Z,100954.69
2022-10-17T05:45:08.368Z,100968.34
2022-10-17T05:51:00.639Z,100990.03
2022-10-17T05:56:54.179Z,100993.66
2022-10-17T06:02:47.594Z,101001.69
2022-10-17T06:08:36.082Z,101001.47
2022-10-17T06:14:23.765Z,101022.53
2022-10-17T06:20:16.566Z,101023.13
2022-10-17T06:26:05.909Z,101035.59
2022-10-17T06:31:54.125Z,101039.03
2022-10-17T06:37:41.668Z,101050.28
2022-10-17T06:43:31.860Z,101051.38
2022-10-17T06:49:49.669Z,101061.34
2022-10-17T06:56:07.481Z,101074.31
2022-10-17T07:02:13.390Z,101079.69
2022-10-17T07:20:19.704Z,101138.97
2022-10-17T07:41:31.433Z,101200.25
2022-10-17T07:47:26.824Z,101218.09
2022-10-17T07:53:17.081Z,101216.25
2022-10-17T07:59:09.344Z,101217.94
2022-10-17T08:04:57.992Z,101238.94
2022-10-17T08:10:45.435Z,101246.75
2022-10-17T08:16:34.870Z,101246.25
2022-10-17T08:22:23.109Z,101258.41
2022-10-17T08:28:10.162Z,101269.84
2022-10-17T08:33:58.296Z,101285.53
2022-10-17T08:39:48.669Z,101297.81
2022-10-17T08:45:44.249Z,101304.28
2022-10-17T08:51:36.103Z,101321.69
2022-10-17T08:57:23.056Z,101325.28
2022-10-17T09:03:19.168Z,101328.78
2022-10-17T09:09:17.921Z,101323.16
2022-10-17T09:15:52.931Z,101343.81
2022-10-17T09:22:03.150Z,101358.72
2022-10-17T09:28:10.140Z,101358.94
2022-10-17T09:34:12.770Z,101368.25
2022-10-17T09:40:46.191Z,101371.84
2022-10-17T09:47:00.357Z,101390.16
2022-10-17T09:52:57.230Z,101398.00
2022-10-17T09:58:50.399Z,101400.84
2022-10-17T10:04:47.088Z,101403.53
2022-10-17T10:10:46.445Z,101430.56
2022-10-17T10:16:41.617Z,101430.41
2022-10-17T10:22:29.238Z,101442.06
2022-10-17T10:28:18.939Z,101438.47
2022-10-17T10:34:30.300Z,101451.44
2022-10-17T10:40:24.463Z,101457.09
2022-10-17T10:46:27.428Z,101451.44
2022-10-17T10:52:24.527Z,101481.38
2022-10-17T10:58:42.178Z,101495.31
2022-10-17T11:05:11.184Z,101509.84
2022-10-17T11:11:27.294Z,101504.28
2022-10-17T11:18:04.347Z,101515.34
2022-10-17T11:24:37.462Z,101519.47
2022-10-17T11:37:24.443Z,101550.75
2022-10-17T11:43:40.043Z,101556.25
2022-10-17T11:49:52.289Z,101557.06
2022-10-17T11:56:02.275Z,101563.06
2022-10-17T12:02:09.363Z,101567.31
2022-10-17T12:08:19.015Z,101573.47
2022-10-17T12:15:01.872Z,101577.59
2022-10-17T12:21:03.903Z,101581.69
2022-10-17T12:27:05.138Z,101568.63
2022-10-17T12:33:18.841Z,101561.94
2022-10-17T12:39:11.863Z,101558.81
2022-10-17T12:45:02.754Z,101560.38
2022-10-17T12:51:34.935Z,101574.78
2022-10-17T12:57:58.195Z,101564.81
2022-10-17T13:03:50.417Z,101570.63
2022-10-17T13:09:48.714Z,101589.44
2022-10-17T13:15:49.579Z,101591.31
2022-10-17T13:21:36.412Z,101592.63
2022-10-17T13:27:32.028Z,101593.59
2022-10-17T13:33:32.500Z,101597.69
2022-10-17T13:39:38.472Z,101604.63
2022-10-17T13:45:41.559Z,101606.03
2022-10-17T13:51:31.341Z,101620.88
2022-10-17T13:57:19.963Z,101621.09
2022-10-17T14:03:07.635Z,101612.84
2022-10-17T14:09:04.656Z,101602.75
2022-10-17T14:15:11.142Z,101627.06
2022-10-17T14:27:37.973Z,101650.94
2022-10-17T14:33:29.582Z,101663.72
2022-10-17T14:39:21.081Z,101664.53
2022-10-17T14:45:21.368Z,101662.31
2022-10-17T14:51:16.346Z,101680.78
2022-10-17T14:57:14.853Z,101678.47
2022-10-17T15:03:02.291Z,101678.75
2022-10-17T15:08:49.273Z,101679.69
2022-10-17T15:14:36.265Z,101692.31
2022-10-17T15:20:28.124Z,101695.13
2022-10-17T15:26:24.320Z,101712.97
2022-10-17T15:32:13.530Z,101706.97
2022-10-17T15:38:00.696Z,101713.34
2022-10-17T15:43:48.908Z,101716.81
2022-10-17T15:49:38.370Z,101715.34
2022-10-17T15:55:27.901Z,101734.66
2022-10-17T16:01:27.175Z,101746.94
2022-10-17T16:07:15.179Z,101749.38
2022-10-17T16:13:02.133Z,101746.59
2022-10-17T16:18:49.376Z,101732.59
2022-10-17T16:24:36.270Z,101755.16
2022-10-17T16:30:29.699Z,101757.06
2022-10-17T16:36:16.519Z,101763.78
2022-10-17T16:42:03.361Z,101771.38
2022-10-17T16:47:50.737Z,101792.56
2022-10-17T16:53:44.512Z,101801.75
2022-10-17T16:59:31.455Z,101818.22
2022-10-17T17:05:18.415Z,101807.56
2022-10-17T17:11:12.027Z,101819.97
2022-10-17T17:16:58.902Z,101832.47
2022-10-17T17:29:16.976Z,101839.94
2022-10-17T17:35:04.359Z,101863.72
2022-10-17T17:40:54.352Z,101873.53
2022-10-17T17:46:43.758Z,101889.78
2022-10-17T17:52:31.569Z,101904.97
2022-10-17T17:58:21.192Z,101903.13
2022-10-17T18:04:09.326Z,101914.06
2022-10-17T18:09:57.028Z,101922.91
2022-10-17T18:15:44.668Z,101943.31
2022-10-17T18:21:31.731Z,101954.09
2022-10-17T18:27:18.498Z,101966.94
2022-10-17T18:33:05.668Z,101971.63
2022-10-17T18:38:53.604Z,101987.94
2022-10-17T18:44:40.357Z,102009.09
2022-10-17T18:50:28.752Z,102012.78
2022-10-17T18:56:38.360Z,102007.09
2022-10-17T19:02:40.030Z,101992.47
2022-10-17T19:08:27.880Z,101992.25
2022-10-17T19:14:18.675Z,101999.16
2022-10-17T19:20:12.107Z,102005.84
2022-10-17T19:26:10.412Z,102017.13
2022-10-17T19:31:59.581Z,102020.84
2022-10-17T19:38:18.807Z,102034.84
2022-10-17T19:44:40.888Z,102034.63
2022-10-17T19:50:53.733Z,102043.47
2022-10-17T19:56:55.212Z,102050.75
2022-10-17T20:02:45.868Z,102061.69
2022-10-17T20:08:33.507Z,102055.88
2022-10-17T20:14:21.066Z,102060.94
2022-10-17T20:20:08.941Z,102077.47
2022-10-17T20:26:13.190Z,102097.75
2022-10-17T20:32:15.963Z,102112.97
2022-10-17T20:38:13.190Z,102092.69
2022-10-17T20:44:01.003Z,102101.25
2022-10-17T20:49:49.150Z,102106.91
2022-10-17T20:55:37.223Z,102106.13
2022-10-17T21:08:32.686Z,102123.75
2022-10-17T21:14:33.411Z,102132.31
2022-10-17T21:20:28.173Z,102119.50
2022-10-17T21:26:18.474Z,102132.84
2022-10-17T21:32:31.886Z,102145.06
2022-10-17T21:38:28.667Z,102153.88
2022-10-17T21:52:11.270Z,102180.09
2022-10-17T21:58:08.062Z,102180.09
2022-10-17T22:03:57.807Z,102186.66
2022-10-17T22:09:44.644Z,102190.63
2022-10-17T22:23:00.179Z,102199.44
2022-10-17T22:28:46.994Z,102207.22
2022-10-17T22:34:33.671Z,102211.97
2022-10-17T22:40:23.300Z,102213.81
2022-10-17T22:46:18.082Z,102204.16
2022-10-17T22:52:04.958Z,102195.81
2022-10-17T22:57:51.787Z,102208.69
2022-10-17T23:03:38.637Z,102189.94
2022-10-17T23:15:11.980Z,102196.59
2022-10-17T23:21:01.217Z,102196.53
2022-10-17T23:26:50.124Z,102202.22
2022-10-17T23:32:36.963Z,102197.47
2022-10-17T23:38:23.775Z,102196.59
2022-10-17T23:44:11.420Z,102211.81
2022-10-17T23:49:58.346Z,102225.56
2022-10-17T23:55:45.074Z,102238.22
